createdAt,value
2018-04-16T00:00:36.443Z,99.90
2018-04-16T00:03:04.329Z,99.90
2018-04-16T00:05:32.342Z,99.90
2018-04-16T00:08:00.316Z,99.90
2018-04-16T00:10:29.045Z,99.90
2018-04-16T00:12:56.985Z,99.90
2018-04-16T00:15:25.757Z,99.90
2018-04-16T00:17:53.709Z,99.90
2018-04-16T00:20:21.698Z,99.90
2018-04-16T00:22:49.605Z,99.90
2018-04-16T00:25:17.611Z,99.90
2018-04-16T00:27:45.561Z,99.90
2018-04-16T00:30:13.490Z,99.90
2018-04-16T00:32:47.793Z,99.90
2018-04-16T00:35:21.425Z,99.90
2018-04-16T00:40:58.647Z,99.90
2018-04-16T00:43:32.159Z,99.90
2018-04-16T00:46:05.763Z,99.90
2018-04-16T00:48:39.336Z,99.90
2018-04-16T00:51:12.890Z,99.90
2018-04-16T00:53:58.254Z,99.90
2018-04-16T00:56:32.449Z,99.90
2018-04-16T00:59:05.895Z,99.90
2018-04-16T01:04:47.234Z,99.90
2018-04-16T01:07:21.632Z,99.90
2018-04-16T01:09:54.962Z,99.90
2018-04-16T01:12:28.430Z,99.90
2018-04-16T01:15:01.942Z,99.90
2018-04-16T01:17:36.205Z,99.90
2018-04-16T01:20:09.737Z,99.90
2018-04-16T01:23:00.145Z,99.90
2018-04-16T01:25:33.557Z,99.90
2018-04-16T01:28:07.855Z,99.90
2018-04-16T01:30:41.259Z,99.90
2018-04-16T01:33:14.768Z,99.90
2018-04-16T01:35:48.265Z,99.90
2018-04-16T01:38:21.699Z,99.90
2018-04-16T01:40:55.256Z,99.90
2018-04-16T01:43:28.702Z,99.90
2018-04-16T01:46:02.068Z,99.90
2018-04-16T01:48:36.439Z,99.90
2018-04-16T01:51:09.798Z,99.90
2018-04-16T01:53:44.011Z,99.90
2018-04-16T01:56:18.192Z,99.90
2018-04-16T01:58:51.637Z,99.90
2018-04-16T02:01:25.071Z,99.90
2018-04-16T02:03:58.689Z,99.90
2018-04-16T02:06:32.101Z,99.90
2018-04-16T02:09:05.600Z,99.90
2018-04-16T02:11:39.267Z,99.90
2018-04-16T02:14:12.708Z,99.90
2018-04-16T02:16:46.109Z,99.90
2018-04-16T02:19:19.769Z,99.90
2018-04-16T02:21:53.174Z,99.90
2018-04-16T02:24:26.576Z,99.90
2018-04-16T02:26:59.991Z,99.90
2018-04-16T02:29:33.562Z,99.90
2018-04-16T02:32:07.105Z,99.90
2018-04-16T02:34:40.750Z,99.90
2018-04-16T02:37:14.206Z,99.90
2018-04-16T02:39:47.654Z,99.90
2018-04-16T02:42:21.149Z,99.90
2018-04-16T02:44:54.768Z,99.90
2018-04-16T02:47:28.258Z,99.90
2018-04-16T02:50:01.856Z,99.90
2018-04-16T02:52:35.411Z,99.90
2018-04-16T02:55:09.477Z,99.90
2018-04-16T02:57:43.024Z,99.90
2018-04-16T03:00:16.462Z,99.90
2018-04-16T03:02:49.968Z,99.90
2018-04-16T03:05:23.592Z,99.90
2018-04-16T03:07:57.121Z,99.90
2018-04-16T03:10:30.547Z,99.90
2018-04-16T03:13:04.049Z,99.90
2018-04-16T03:15:37.474Z,99.90
2018-04-16T03:18:10.920Z,99.90
2018-04-16T03:20:44.431Z,99.90
2018-04-16T03:23:18.706Z,99.90
2018-04-16T03:25:52.186Z,99.90
2018-04-16T03:28:25.778Z,99.90
2018-04-16T03:30:59.339Z,99.90
2018-04-16T03:36:27.120Z,99.90
2018-04-16T03:39:00.463Z,99.90
2018-04-16T03:41:34.041Z,99.90
2018-04-16T03:44:08.377Z,99.90
2018-04-16T03:46:41.945Z,99.90
2018-04-16T03:52:20.413Z,99.90
2018-04-16T03:54:49.526Z,99.90
2018-04-16T03:57:17.515Z,99.90
2018-04-16T03:59:46.203Z,99.90
2018-04-16T04:02:14.159Z,99.90
2018-04-16T04:04:42.062Z,99.90
2018-04-16T04:07:10.026Z,99.90
2018-04-16T04:09:37.959Z,99.90
2018-04-16T04:12:05.918Z,99.90
2018-04-16T04:14:34.617Z,99.90
2018-04-16T04:17:02.622Z,99.90
2018-04-16T04:19:30.512Z,99.90
2018-04-16T04:21:58.467Z,99.90
2018-04-16T04:24:38.018Z,99.90
2018-04-16T04:27:17.658Z,99.90
2018-04-16T04:29:57.327Z,99.90
2018-04-16T04:32:25.290Z,99.90
2018-04-16T04:34:53.185Z,99.90
2018-04-16T04:37:21.189Z,99.90
2018-04-16T04:39:49.085Z,99.90
2018-04-16T04:42:17.039Z,99.90
2018-04-16T04:44:44.932Z,99.90
2018-04-16T04:47:17.517Z,99.90
2018-04-16T04:49:49.735Z,99.90
2018-04-16T04:52:22.252Z,99.90
2018-04-16T04:54:53.307Z,99.90
2018-04-16T04:57:24.921Z,99.90
2018-04-16T04:59:56.475Z,99.90
2018-04-16T05:02:26.019Z,99.90
2018-04-16T05:04:54.912Z,99.90
2018-04-16T05:07:23.573Z,99.90
2018-04-16T05:09:54.346Z,99.90
2018-04-16T05:12:26.186Z,99.90
2018-04-16T05:14:56.783Z,99.90
2018-04-16T05:17:28.439Z,99.90
2018-04-16T05:19:59.958Z,99.90
2018-04-16T05:22:30.768Z,99.90
2018-04-16T05:25:01.315Z,99.90
2018-04-16T05:27:29.651Z,99.90
2018-04-16T05:29:59.975Z,99.90
2018-04-16T05:32:28.115Z,99.90
2018-04-16T05:34:56.138Z,99.90
2018-04-16T05:37:24.030Z,99.90
2018-04-16T05:39:51.986Z,99.90
2018-04-16T05:42:19.887Z,99.90
2018-04-16T05:44:48.591Z,99.90
2018-04-16T05:47:19.175Z,99.90
2018-04-16T05:49:49.790Z,99.90
2018-04-16T05:52:20.677Z,99.90
2018-04-16T05:54:52.898Z,99.90
2018-04-16T05:57:24.719Z,99.90
2018-04-16T05:59:55.787Z,99.90
2018-04-16T06:02:26.773Z,99.90
2018-04-16T06:04:58.056Z,99.90
2018-04-16T06:07:31.803Z,99.90
2018-04-16T06:10:04.082Z,99.90
2018-04-16T06:12:34.673Z,99.90
2018-04-16T06:15:05.795Z,99.90
2018-04-16T06:17:36.671Z,99.90
2018-04-16T06:20:08.180Z,99.90
2018-04-16T06:22:39.221Z,99.90
2018-04-16T06:25:10.413Z,99.90
2018-04-16T06:27:41.856Z,99.90
2018-04-16T06:30:11.846Z,99.90
2018-04-16T06:32:42.887Z,99.90
2018-04-16T06:35:13.666Z,99.90
2018-04-16T06:37:45.623Z,99.90
2018-04-16T06:40:17.238Z,99.90
2018-04-16T06:42:48.544Z,99.90
2018-04-16T06:45:19.921Z,99.90
2018-04-16T06:47:50.547Z,99.90
2018-04-16T06:50:18.695Z,99.90
2018-04-16T06:52:46.585Z,96.20
2018-04-16T06:55:14.544Z,87.70
2018-04-16T06:57:42.449Z,81.30
2018-04-16T07:00:11.192Z,93.70
2018-04-16T07:02:39.089Z,93.70
2018-04-16T07:05:07.040Z,94.50
2018-04-16T07:07:35.013Z,93.30
2018-04-16T07:10:02.976Z,92.50
2018-04-16T07:12:30.871Z,80.50
2018-04-16T07:14:58.829Z,74.60
2018-04-16T07:17:26.786Z,71.40
2018-04-16T07:19:54.789Z,72.20
2018-04-16T07:22:25.437Z,68.60
2018-04-16T07:24:53.321Z,68.60
2018-04-16T07:27:21.301Z,68.30
2018-04-16T07:29:49.241Z,63.20
2018-04-16T07:32:17.190Z,59.10
2018-04-16T07:34:45.079Z,57.40
2018-04-16T07:37:13.795Z,55.90
2018-04-16T07:39:41.750Z,55.90
2018-04-16T07:42:09.705Z,54.70
2018-04-16T07:44:38.395Z,51.90
2018-04-16T07:47:07.102Z,50.60
2018-04-16T07:49:35.001Z,50.20
2018-04-16T07:52:02.963Z,49.50
2018-04-16T07:54:30.853Z,47.70
2018-04-16T07:56:58.824Z,48.60
2018-04-16T07:59:26.720Z,45.30
2018-04-16T08:01:55.456Z,43.90
2018-04-16T08:04:26.776Z,43.80
2018-04-16T08:06:57.020Z,44.40
2018-04-16T08:09:26.220Z,44.40
2018-04-16T08:11:54.329Z,45.20
2018-04-16T08:14:22.231Z,45.70
2018-04-16T08:16:50.974Z,45.30
2018-04-16T08:19:18.911Z,45.20
2018-04-16T08:21:47.649Z,43.50
2018-04-16T08:24:15.566Z,43.50
2018-04-16T08:26:43.479Z,44.40
2018-04-16T08:29:11.439Z,43.00
2018-04-16T08:31:39.410Z,41.80
2018-04-16T08:34:07.380Z,43.80
2018-04-16T08:36:35.296Z,42.40
2018-04-16T08:39:03.369Z,41.70
2018-04-16T08:41:32.041Z,46.30
2018-04-16T08:44:00.001Z,46.30
2018-04-16T08:46:27.912Z,45.50
2018-04-16T08:48:55.914Z,46.90
2018-04-16T08:51:23.818Z,46.60
2018-04-16T08:53:52.557Z,46.10
2018-04-16T08:56:21.226Z,44.90
2018-04-16T08:58:49.192Z,44.90
2018-04-16T09:01:17.118Z,44.20
2018-04-16T09:03:45.112Z,45.50
2018-04-16T09:06:13.771Z,46.10
2018-04-16T09:08:41.730Z,46.10
2018-04-16T09:11:10.520Z,43.10
2018-04-16T09:13:38.598Z,43.00
2018-04-16T09:16:06.538Z,43.40
2018-04-16T09:18:34.500Z,45.00
2018-04-16T09:21:02.709Z,46.60
2018-04-16T09:23:30.673Z,48.50
2018-04-16T09:25:59.609Z,47.90
2018-04-16T09:28:28.526Z,48.60
2018-04-16T09:30:56.429Z,48.50
2018-04-16T09:33:24.389Z,51.20
2018-04-16T09:35:52.296Z,53.40
2018-04-16T09:38:20.254Z,50.50
2018-04-16T09:40:48.153Z,50.50
2018-04-16T09:43:16.112Z,50.30
2018-04-16T09:45:44.793Z,51.00
2018-04-16T09:48:12.750Z,51.00
2018-04-16T09:50:40.675Z,53.50
2018-04-16T09:53:08.629Z,58.30
2018-04-16T09:55:37.302Z,57.40
2018-04-16T09:58:06.047Z,57.10
2018-04-16T10:00:39.581Z,57.00
2018-04-16T10:03:07.597Z,55.20
2018-04-16T10:05:35.894Z,55.80
2018-04-16T10:08:03.865Z,56.00
2018-04-16T10:10:31.774Z,58.30
2018-04-16T10:12:59.782Z,60.50
2018-04-16T10:15:27.749Z,59.90
2018-04-16T10:17:55.775Z,59.90
2018-04-16T10:20:23.689Z,59.60
2018-04-16T10:22:51.644Z,55.90
2018-04-16T10:25:20.331Z,54.40
2018-04-16T10:27:49.089Z,54.20
2018-04-16T10:30:17.000Z,54.10
2018-04-16T10:32:45.018Z,55.10
2018-04-16T10:35:12.919Z,54.10
2018-04-16T10:37:41.634Z,54.00
2018-04-16T10:40:09.594Z,54.00
2018-04-16T10:42:37.562Z,51.90
2018-04-16T10:45:05.485Z,51.50
2018-04-16T10:47:33.435Z,54.50
2018-04-16T10:50:01.349Z,54.50
2018-04-16T10:52:29.345Z,51.70
2018-04-16T10:54:57.233Z,50.60
2018-04-16T10:57:25.179Z,49.80
2018-04-16T10:59:53.117Z,46.20
2018-04-16T11:02:21.017Z,46.50
2018-04-16T11:04:49.016Z,46.50
2018-04-16T11:07:17.217Z,47.60
2018-04-16T11:09:46.254Z,48.30
2018-04-16T11:12:14.920Z,47.00
2018-04-16T11:14:42.917Z,47.00
2018-04-16T11:17:15.112Z,46.70
2018-04-16T11:19:45.588Z,44.90
2018-04-16T11:22:13.513Z,44.60
2018-04-16T11:24:41.505Z,47.60
2018-04-16T11:27:09.433Z,46.70
2018-04-16T11:29:37.445Z,47.20
2018-04-16T11:32:06.371Z,50.30
2018-04-16T11:34:35.103Z,46.10
2018-04-16T11:37:03.049Z,46.10
2018-04-16T11:39:30.998Z,43.10
2018-04-16T11:41:59.652Z,44.10
2018-04-16T11:44:27.596Z,44.10
2018-04-16T11:46:55.777Z,43.60
2018-04-16T11:49:24.371Z,42.80
2018-04-16T11:51:52.333Z,45.70
2018-04-16T11:54:20.320Z,44.70
2018-04-16T11:56:48.210Z,43.70
2018-04-16T11:59:17.065Z,44.60
2018-04-16T12:01:45.018Z,44.20
2018-04-16T12:04:14.438Z,42.30
2018-04-16T12:06:42.482Z,44.50
2018-04-16T12:09:10.452Z,43.30
2018-04-16T12:11:38.362Z,46.10
2018-04-16T12:14:06.324Z,46.60
2018-04-16T12:16:34.296Z,46.50
2018-04-16T12:19:02.348Z,48.30
2018-04-16T12:21:30.267Z,50.10
2018-04-16T12:23:58.225Z,48.40
2018-04-16T12:26:26.214Z,49.40
2018-04-16T12:28:54.207Z,52.00
2018-04-16T12:31:22.877Z,52.40
2018-04-16T12:33:51.639Z,54.20
2018-04-16T12:36:19.529Z,54.10
2018-04-16T12:38:47.510Z,51.60
2018-04-16T12:41:16.185Z,53.80
2018-04-16T12:43:44.305Z,53.80
2018-04-16T12:46:12.282Z,52.30
2018-04-16T12:48:46.938Z,53.30
2018-04-16T12:51:18.191Z,53.00
2018-04-16T12:53:46.129Z,51.40
2018-04-16T12:58:58.382Z,48.50
2018-04-16T13:01:26.361Z,51.80
2018-04-16T13:03:54.341Z,57.20
2018-04-16T13:06:23.058Z,63.90
2018-04-16T13:08:51.060Z,63.80
2018-04-16T13:11:18.964Z,64.90
2018-04-16T13:13:46.922Z,71.30
2018-04-16T13:16:14.832Z,72.90
2018-04-16T13:18:42.824Z,59.80
2018-04-16T13:21:10.847Z,69.50
2018-04-16T13:23:39.586Z,58.50
2018-04-16T13:26:08.257Z,59.80
2018-04-16T13:28:36.218Z,60.00
2018-04-16T13:31:04.876Z,62.00
2018-04-16T13:33:32.817Z,62.20
2018-04-16T13:36:00.746Z,59.00
2018-04-16T13:38:28.705Z,61.00
2018-04-16T13:40:57.370Z,66.00
2018-04-16T13:46:39.724Z,66.90
2018-04-16T13:49:11.352Z,67.30
2018-04-16T13:51:39.351Z,71.70
2018-04-16T13:54:07.302Z,69.50
2018-04-16T13:56:35.189Z,60.40
2018-04-16T13:59:03.191Z,60.70
2018-04-16T14:01:31.135Z,79.80
2018-04-16T14:04:05.978Z,73.30
2018-04-16T14:06:33.877Z,65.10
2018-04-16T14:09:01.839Z,68.30
2018-04-16T14:11:29.731Z,63.40
2018-04-16T14:13:57.679Z,70.40
2018-04-16T14:16:26.346Z,78.40
2018-04-16T14:18:54.319Z,78.60
2018-04-16T14:21:22.205Z,72.60
2018-04-16T14:23:50.228Z,71.30
2018-04-16T14:26:18.944Z,77.60
2018-04-16T14:28:46.892Z,77.70
2018-04-16T14:31:16.263Z,90.00
2018-04-16T14:33:44.704Z,89.00
2018-04-16T14:36:12.680Z,69.50
2018-04-16T14:38:41.611Z,64.20
2018-04-16T14:41:09.693Z,64.10
2018-04-16T14:43:38.424Z,89.40
2018-04-16T14:46:10.849Z,90.80
2018-04-16T14:48:42.333Z,73.30
2018-04-16T14:51:10.484Z,91.40
2018-04-16T14:53:39.281Z,77.90
2018-04-16T14:56:08.082Z,92.60
2018-04-16T14:58:37.176Z,92.30
2018-04-16T15:01:14.957Z,93.60
2018-04-16T15:03:46.877Z,92.70
2018-04-16T15:06:14.773Z,88.20
2018-04-16T15:08:42.716Z,91.60
2018-04-16T15:11:10.664Z,93.60
2018-04-16T15:13:40.078Z,96.70
2018-04-16T15:16:08.059Z,94.00
2018-04-16T15:18:36.168Z,95.20
2018-04-16T15:21:04.188Z,97.30
2018-04-16T15:23:32.142Z,99.90
2018-04-16T15:26:02.570Z,94.70
2018-04-16T15:28:31.544Z,95.20
2018-04-16T15:30:59.562Z,99.90
2018-04-16T15:33:32.197Z,99.90
2018-04-16T15:36:01.064Z,99.60
2018-04-16T15:38:32.272Z,99.60
2018-04-16T15:41:22.521Z,99.90
2018-04-16T15:46:45.813Z,92.80
2018-04-16T15:49:14.414Z,95.20
2018-04-16T15:51:48.706Z,99.90
2018-04-16T15:54:21.593Z,99.60
2018-04-16T15:56:51.303Z,99.30
2018-04-16T15:59:32.247Z,99.90
2018-04-16T16:04:59.653Z,99.70
2018-04-16T16:07:30.297Z,99.80
2018-04-16T16:10:00.142Z,99.90
2018-04-16T16:12:28.863Z,97.60
2018-04-16T16:14:58.082Z,98.30
2018-04-16T16:17:26.078Z,99.90
2018-04-16T16:19:54.825Z,93.80
2018-04-16T16:22:22.721Z,93.60
2018-04-16T16:24:50.682Z,93.00
2018-04-16T16:27:19.844Z,95.00
2018-04-16T16:29:50.221Z,93.80
2018-04-16T16:32:18.155Z,97.80
2018-04-16T16:34:46.293Z,93.60
2018-04-16T16:37:14.351Z,96.70
2018-04-16T16:39:46.099Z,97.90
2018-04-16T16:42:15.272Z,95.30
2018-04-16T16:44:46.441Z,95.60
2018-04-16T16:47:14.439Z,97.00
2018-04-16T16:49:44.526Z,95.60
2018-04-16T16:52:14.615Z,97.80
2018-04-16T16:54:42.638Z,97.40
2018-04-16T16:57:11.312Z,99.90
2018-04-16T16:59:41.367Z,99.00
2018-04-16T17:05:21.410Z,98.80
2018-04-16T17:07:57.072Z,99.90
2018-04-16T17:10:26.565Z,99.90
2018-04-16T17:13:07.463Z,99.90
2018-04-16T17:18:18.444Z,99.90
2018-04-16T17:24:11.522Z,99.90
2018-04-16T17:50:52.255Z,99.90
2018-04-16T17:53:20.692Z,99.90
2018-04-16T17:55:50.727Z,99.90
2018-04-16T17:58:23.966Z,99.90
2018-04-16T18:00:52.182Z,99.90
2018-04-16T18:03:33.033Z,99.90
2018-04-16T18:06:06.982Z,99.90
2018-04-16T18:08:35.135Z,99.90
2018-04-16T18:11:04.454Z,99.90
2018-04-16T18:13:32.521Z,99.90
2018-04-16T18:16:00.499Z,99.90
2018-04-16T18:18:28.472Z,99.90
2018-04-16T18:20:56.439Z,99.90
2018-04-16T18:23:24.365Z,99.90
2018-04-16T18:25:52.343Z,99.90
2018-04-16T18:28:20.277Z,99.90
2018-04-16T18:30:49.039Z,99.90
2018-04-16T18:33:16.933Z,99.90
2018-04-16T18:35:45.703Z,99.90
2018-04-16T18:38:15.601Z,99.90
2018-04-16T18:40:44.711Z,99.90
2018-04-16T18:43:35.529Z,99.90
2018-04-16T18:46:08.116Z,99.90
2018-04-16T18:48:40.352Z,99.90
2018-04-16T18:51:10.001Z,99.90
2018-04-16T18:53:38.118Z,99.90
2018-04-16T18:56:06.223Z,99.90
2018-04-16T18:58:34.268Z,99.90
2018-04-16T19:01:02.332Z,99.90
2018-04-16T19:03:30.485Z,99.90
2018-04-16T19:05:59.467Z,99.90
2018-04-16T19:08:27.512Z,99.90
2018-04-16T19:10:56.334Z,99.90
2018-04-16T19:13:29.288Z,99.90
2018-04-16T19:15:58.975Z,99.90
2018-04-16T19:18:26.913Z,99.90
2018-04-16T19:21:00.502Z,99.90
2018-04-16T19:26:23.536Z,99.90
2018-04-16T19:28:51.579Z,99.90
2018-04-16T19:31:19.698Z,99.90
2018-04-16T19:33:53.232Z,99.90
2018-04-16T19:36:21.316Z,99.90
2018-04-16T19:38:49.322Z,99.90
2018-04-16T19:41:17.391Z,99.90
2018-04-16T19:43:45.329Z,99.90
2018-04-16T19:46:16.859Z,99.90
2018-04-16T19:48:54.055Z,99.90
2018-04-16T19:51:22.346Z,99.90
2018-04-16T19:53:51.011Z,99.90
2018-04-16T19:56:25.921Z,99.90
2018-04-16T19:58:54.866Z,99.90
2018-04-16T20:01:25.259Z,99.90
2018-04-16T20:04:00.135Z,99.90
2018-04-16T20:06:28.240Z,99.90
2018-04-16T20:08:56.249Z,99.90
2018-04-16T20:11:25.238Z,99.90
2018-04-16T20:13:53.509Z,99.90
2018-04-16T20:16:22.289Z,99.90
2018-04-16T20:18:50.238Z,99.90
2018-04-16T20:21:18.232Z,99.90
2018-04-16T20:23:46.963Z,99.90
2018-04-16T20:26:15.013Z,99.90
2018-04-16T20:28:42.950Z,99.90
2018-04-16T20:31:11.000Z,99.90
2018-04-16T20:33:38.917Z,99.90
2018-04-16T20:36:07.704Z,99.90
2018-04-16T20:38:38.233Z,99.90
2018-04-16T20:41:06.664Z,99.90
2018-04-16T20:43:34.583Z,99.90
2018-04-16T20:46:03.323Z,99.90
2018-04-16T20:48:32.207Z,99.90
2018-04-16T20:51:00.188Z,99.90
2018-04-16T20:56:44.104Z,99.90
2018-04-16T20:59:14.220Z,99.90
2018-04-16T21:01:42.338Z,99.90
2018-04-16T21:04:11.457Z,99.90
2018-04-16T21:06:40.863Z,99.90
2018-04-16T21:09:08.824Z,99.90
2018-04-16T21:11:37.702Z,99.90
2018-04-16T21:14:06.725Z,99.90
2018-04-16T21:16:35.531Z,99.90
2018-04-16T21:19:03.553Z,99.90
2018-04-16T21:21:31.770Z,99.90
2018-04-16T21:24:00.845Z,99.90
2018-04-16T21:26:29.000Z,99.90
2018-04-16T21:28:57.818Z,99.90
2018-04-16T21:31:25.833Z,99.90
2018-04-16T21:33:54.533Z,99.90
2018-04-16T21:36:22.629Z,99.90
2018-04-16T21:38:50.845Z,99.90
2018-04-16T21:41:19.741Z,99.90
2018-04-16T21:43:48.462Z,99.90
2018-04-16T21:46:16.575Z,99.90
2018-04-16T21:48:44.653Z,99.90
2018-04-16T21:51:12.758Z,99.90
2018-04-16T21:53:41.477Z,99.90
2018-04-16T21:56:09.472Z,99.90
2018-04-16T21:58:37.449Z,99.90
2018-04-16T22:01:05.537Z,99.90
2018-04-16T22:03:33.534Z,99.90
2018-04-16T22:06:02.308Z,99.90
2018-04-16T22:08:30.257Z,99.90
2018-04-16T22:10:58.306Z,99.90
2018-04-16T22:13:26.323Z,99.90
2018-04-16T22:15:55.180Z,99.90
2018-04-16T22:18:23.586Z,99.90
2018-04-16T22:20:53.754Z,99.90
2018-04-16T22:23:35.013Z,99.90
2018-04-16T22:26:03.121Z,99.90
2018-04-16T22:28:31.055Z,99.90
2018-04-16T22:30:59.899Z,99.90
2018-04-16T22:33:27.959Z,99.90
2018-04-16T22:35:56.031Z,99.90
2018-04-16T22:38:24.055Z,99.90
2018-04-16T22:40:52.817Z,99.90
2018-04-16T22:43:20.737Z,99.90
2018-04-16T22:45:48.744Z,99.90
2018-04-16T22:48:17.581Z,99.90
2018-04-16T22:50:46.399Z,99.90
2018-04-16T22:53:14.360Z,99.90
2018-04-16T22:55:42.391Z,99.90
2018-04-16T22:58:10.382Z,99.90
2018-04-16T23:00:39.055Z,99.90
2018-04-16T23:03:07.092Z,99.90
2018-04-16T23:05:35.021Z,99.90
2018-04-16T23:08:03.856Z,99.90
2018-04-16T23:10:31.841Z,99.90
2018-04-16T23:12:59.852Z,99.90
2018-04-16T23:15:27.785Z,99.90
2018-04-16T23:17:55.843Z,99.90
2018-04-16T23:20:23.823Z,99.90
2018-04-16T23:22:51.840Z,99.90
2018-04-16T23:25:19.782Z,99.90
2018-04-16T23:27:48.594Z,99.90
2018-04-16T23:30:17.341Z,99.90
2018-04-16T23:32:45.334Z,99.90
2018-04-16T23:35:14.096Z,99.90
2018-04-16T23:37:42.123Z,99.90
2018-04-16T23:40:10.153Z,99.90
2018-04-16T23:42:38.221Z,99.90
2018-04-16T23:45:06.169Z,99.90
2018-04-16T23:47:34.157Z,99.90
2018-04-16T23:50:02.074Z,99.90
2018-04-16T23:52:30.040Z,99.90
2018-04-16T23:54:58.717Z,99.90
2018-04-16T23:57:27.465Z,99.90
2018-04-16T23:59:55.417Z,99.90
